sensor_id;sensor_type;location;lat;lon;timestamp;temperature;humidity
20349;DHT22;10332;50.208;18.988;2022-08-23T00:01:59;19.20;99.90
20349;DHT22;10332;50.208;18.988;2022-08-23T00:04:39;19.20;99.90
20349;DHT22;10332;50.208;18.988;2022-08-23T00:07:28;19.20;99.90
20349;DHT22;10332;50.208;18.988;2022-08-23T00:09:55;19.10;99.90
20349;DHT22;10332;50.208;18.988;2022-08-23T00:12:24;19.10;99.90
20349;DHT22;10332;50.208;18.988;2022-08-23T00:14:53;19.10;99.90
20349;DHT22;10332;50.208;18.988;2022-08-23T00:17:24;19.10;99.90
20349;DHT22;10332;50.208;18.988;2022-08-23T00:20:05;19.10;99.90
20349;DHT22;10332;50.208;18.988;2022-08-23T00:22:35;19.10;99.90
20349;DHT22;10332;50.208;18.988;2022-08-23T00:25:05;19.10;99.90
20349;DHT22;10332;50.208;18.988;2022-08-23T00:27:34;19.10;99.90
20349;DHT22;10332;50.208;18.988;2022-08-23T00:30:04;19.10;99.90
20349;DHT22;10332;50.208;18.988;2022-08-23T00:32:35;19.00;99.90
20349;DHT22;10332;50.208;18.988;2022-08-23T00:35:05;19.10;99.90
20349;DHT22;10332;50.208;18.988;2022-08-23T00:37:33;19.10;99.90
20349;DHT22;10332;50.208;18.988;2022-08-23T00:40:04;19.00;99.90
20349;DHT22;10332;50.208;18.988;2022-08-23T00:42:42;19.00;99.90
20349;DHT22;10332;50.208;18.988;2022-08-23T00:45:43;19.00;99.90
20349;DHT22;10332;50.208;18.988;2022-08-23T00:48:40;19.00;99.90
20349;DHT22;10332;50.208;18.988;2022-08-23T00:51:25;19.00;99.90
20349;DHT22;10332;50.208;18.988;2022-08-23T00:54:15;19.00;99.90
20349;DHT22;10332;50.208;18.988;2022-08-23T00:56:45;19.00;99.90
20349;DHT22;10332;50.208;18.988;2022-08-23T00:59:12;19.00;99.90
20349;DHT22;10332;50.208;18.988;2022-08-23T01:01:39;19.00;99.90
20349;DHT22;10332;50.208;18.988;2022-08-23T01:04:10;19.00;99.90
20349;DHT22;10332;50.208;18.988;2022-08-23T01:09:14;19.00;99.90
20349;DHT22;10332;50.208;18.988;2022-08-23T01:12:19;19.00;99.90
20349;DHT22;10332;50.208;18.988;2022-08-23T01:17:45;19.00;99.90
20349;DHT22;10332;50.208;18.988;2022-08-23T01:20:21;19.10;99.90
20349;DHT22;10332;50.208;18.988;2022-08-23T01:22:58;19.10;99.90
20349;DHT22;10332;50.208;18.988;2022-08-23T01:25:32;19.10;99.90
20349;DHT22;10332;50.208;18.988;2022-08-23T01:28:00;19.10;99.90
20349;DHT22;10332;50.208;18.988;2022-08-23T01:30:30;19.10;99.90
20349;DHT22;10332;50.208;18.988;2022-08-23T01:33:03;19.10;99.90
20349;DHT22;10332;50.208;18.988;2022-08-23T01:35:46;19.20;99.90
20349;DHT22;10332;50.208;18.988;2022-08-23T01:38:17;19.20;99.90
20349;DHT22;10332;50.208;18.988;2022-08-23T01:40:45;19.20;99.90
20349;DHT22;10332;50.208;18.988;2022-08-23T01:43:13;19.20;99.90
20349;DHT22;10332;50.208;18.988;2022-08-23T01:45:45;19.20;99.90
20349;DHT22;10332;50.208;18.988;2022-08-23T01:48:14;19.20;99.90
20349;DHT22;10332;50.208;18.988;2022-08-23T01:50:42;19.20;99.90
20349;DHT22;10332;50.208;18.988;2022-08-23T01:53:12;19.20;99.90
20349;DHT22;10332;50.208;18.988;2022-08-23T01:55:41;19.20;99.90
20349;DHT22;10332;50.208;18.988;2022-08-23T01:58:09;19.30;99.90
20349;DHT22;10332;50.208;18.988;2022-08-23T02:00:40;19.20;99.90
20349;DHT22;10332;50.208;18.988;2022-08-23T02:03:09;19.20;99.90
20349;DHT22;10332;50.208;18.988;2022-08-23T02:05:39;19.20;99.90
20349;DHT22;10332;50.208;18.988;2022-08-23T02:08:07;19.20;99.90
20349;DHT22;10332;50.208;18.988;2022-08-23T02:10:54;19.10;99.90
20349;DHT22;10332;50.208;18.988;2022-08-23T02:13:22;19.10;99.90
20349;DHT22;10332;50.208;18.988;2022-08-23T02:15:50;19.00;99.90
20349;DHT22;10332;50.208;18.988;2022-08-23T02:18:19;19.00;99.90
20349;DHT22;10332;50.208;18.988;2022-08-23T02:20:50;18.90;99.90
20349;DHT22;10332;50.208;18.988;2022-08-23T02:23:19;18.80;99.90
20349;DHT22;10332;50.208;18.988;2022-08-23T02:26:31;18.80;99.90
20349;DHT22;10332;50.208;18.988;2022-08-23T02:29:02;18.80;99.90
20349;DHT22;10332;50.208;18.988;2022-08-23T02:31:30;18.70;99.90
20349;DHT22;10332;50.208;18.988;2022-08-23T02:33:58;18.70;99.90
20349;DHT22;10332;50.208;18.988;2022-08-23T02:36:27;18.70;99.90
20349;DHT22;10332;50.208;18.988;2022-08-23T02:38:55;18.70;99.90
20349;DHT22;10332;50.208;18.988;2022-08-23T02:41:22;18.70;99.90
20349;DHT22;10332;50.208;18.988;2022-08-23T02:43:53;18.70;99.90
20349;DHT22;10332;50.208;18.988;2022-08-23T02:46:21;18.80;99.90
20349;DHT22;10332;50.208;18.988;2022-08-23T02:48:49;18.80;99.90
20349;DHT22;10332;50.208;18.988;2022-08-23T02:51:17;18.90;99.90
20349;DHT22;10332;50.208;18.988;2022-08-23T02:53:46;18.90;99.90
20349;DHT22;10332;50.208;18.988;2022-08-23T02:56:14;18.90;99.90
20349;DHT22;10332;50.208;18.988;2022-08-23T02:58:51;18.90;99.90
20349;DHT22;10332;50.208;18.988;2022-08-23T03:01:24;18.90;99.90
20349;DHT22;10332;50.208;18.988;2022-08-23T03:03:54;18.90;99.90
20349;DHT22;10332;50.208;18.988;2022-08-23T03:06:23;18.90;99.90
20349;DHT22;10332;50.208;18.988;2022-08-23T03:08:53;18.90;99.90
20349;DHT22;10332;50.208;18.988;2022-08-23T03:11:23;18.90;99.90
20349;DHT22;10332;50.208;18.988;2022-08-23T03:13:52;18.90;99.90
20349;DHT22;10332;50.208;18.988;2022-08-23T03:16:20;18.90;99.90
20349;DHT22;10332;50.208;18.988;2022-08-23T03:18:49;18.80;99.90
20349;DHT22;10332;50.208;18.988;2022-08-23T03:21:17;18.80;99.90
20349;DHT22;10332;50.208;18.988;2022-08-23T03:23:46;18.80;99.90
20349;DHT22;10332;50.208;18.988;2022-08-23T03:26:14;18.70;99.90
20349;DHT22;10332;50.208;18.988;2022-08-23T03:28:44;18.70;99.90
20349;DHT22;10332;50.208;18.988;2022-08-23T03:31:13;18.70;99.90
20349;DHT22;10332;50.208;18.988;2022-08-23T03:33:42;18.70;99.90
20349;DHT22;10332;50.208;18.988;2022-08-23T03:36:11;18.70;99.90
20349;DHT22;10332;50.208;18.988;2022-08-23T03:38:40;18.70;99.90
20349;DHT22;10332;50.208;18.988;2022-08-23T03:41:08;18.60;99.90
20349;DHT22;10332;50.208;18.988;2022-08-23T03:43:36;18.60;99.90
20349;DHT22;10332;50.208;18.988;2022-08-23T03:46:06;18.50;99.90
20349;DHT22;10332;50.208;18.988;2022-08-23T03:48:34;18.50;99.90
20349;DHT22;10332;50.208;18.988;2022-08-23T03:51:02;18.50;99.90
20349;DHT22;10332;50.208;18.988;2022-08-23T03:53:29;18.60;99.90
20349;DHT22;10332;50.208;18.988;2022-08-23T03:55:56;18.60;99.90
20349;DHT22;10332;50.208;18.988;2022-08-23T03:58:24;18.60;99.90
20349;DHT22;10332;50.208;18.988;2022-08-23T04:00:52;18.60;99.90
20349;DHT22;10332;50.208;18.988;2022-08-23T04:03:20;18.70;99.90
20349;DHT22;10332;50.208;18.988;2022-08-23T04:05:47;18.70;99.90
20349;DHT22;10332;50.208;18.988;2022-08-23T04:08:14;18.70;99.90
20349;DHT22;10332;50.208;18.988;2022-08-23T04:10:52;18.70;99.90
20349;DHT22;10332;50.208;18.988;2022-08-23T04:13:21;18.80;99.90
20349;DHT22;10332;50.208;18.988;2022-08-23T04:15:53;18.80;99.90
20349;DHT22;10332;50.208;18.988;2022-08-23T04:18:21;18.80;99.90
20349;DHT22;10332;50.208;18.988;2022-08-23T04:20:49;18.80;99.90
20349;DHT22;10332;50.208;18.988;2022-08-23T04:23:17;18.90;99.90
20349;DHT22;10332;50.208;18.988;2022-08-23T04:25:45;18.90;99.90
20349;DHT22;10332;50.208;18.988;2022-08-23T04:28:12;18.90;99.90
20349;DHT22;10332;50.208;18.988;2022-08-23T04:30:39;18.90;99.90
20349;DHT22;10332;50.208;18.988;2022-08-23T04:33:07;19.00;99.90
20349;DHT22;10332;50.208;18.988;2022-08-23T04:35:38;19.00;99.90
20349;DHT22;10332;50.208;18.988;2022-08-23T04:38:07;19.00;99.90
20349;DHT22;10332;50.208;18.988;2022-08-23T04:40:51;19.10;99.90
20349;DHT22;10332;50.208;18.988;2022-08-23T04:43:39;19.10;99.90
20349;DHT22;10332;50.208;18.988;2022-08-23T04:46:06;19.10;99.90
20349;DHT22;10332;50.208;18.988;2022-08-23T04:48:34;19.10;99.90
20349;DHT22;10332;50.208;18.988;2022-08-23T04:51:02;19.20;99.90
20349;DHT22;10332;50.208;18.988;2022-08-23T04:53:30;19.20;99.90
20349;DHT22;10332;50.208;18.988;2022-08-23T04:56:02;19.30;99.90
20349;DHT22;10332;50.208;18.988;2022-08-23T04:58:31;19.30;99.90
20349;DHT22;10332;50.208;18.988;2022-08-23T05:01:01;19.40;99.90
20349;DHT22;10332;50.208;18.988;2022-08-23T05:03:31;19.40;99.90
20349;DHT22;10332;50.208;18.988;2022-08-23T05:05:58;19.50;99.90
20349;DHT22;10332;50.208;18.988;2022-08-23T05:08:27;19.50;99.90
20349;DHT22;10332;50.208;18.988;2022-08-23T05:10:54;19.60;99.90
20349;DHT22;10332;50.208;18.988;2022-08-23T05:13:21;19.60;99.90
20349;DHT22;10332;50.208;18.988;2022-08-23T05:15:50;19.70;99.90
20349;DHT22;10332;50.208;18.988;2022-08-23T05:18:18;19.80;99.90
20349;DHT22;10332;50.208;18.988;2022-08-23T05:20:45;19.80;99.90
20349;DHT22;10332;50.208;18.988;2022-08-23T05:23:13;19.90;99.90
20349;DHT22;10332;50.208;18.988;2022-08-23T05:25:43;20.00;99.90
20349;DHT22;10332;50.208;18.988;2022-08-23T05:28:26;20.10;99.90
20349;DHT22;10332;50.208;18.988;2022-08-23T05:30:59;20.10;99.90
20349;DHT22;10332;50.208;18.988;2022-08-23T05:33:31;20.10;99.90
20349;DHT22;10332;50.208;18.988;2022-08-23T05:36:01;20.20;99.90
20349;DHT22;10332;50.208;18.988;2022-08-23T05:38:30;20.20;99.90
20349;DHT22;10332;50.208;18.988;2022-08-23T05:40:58;20.30;99.90
20349;DHT22;10332;50.208;18.988;2022-08-23T05:43:33;20.40;99.90
20349;DHT22;10332;50.208;18.988;2022-08-23T05:46:12;20.60;99.90
20349;DHT22;10332;50.208;18.988;2022-08-23T05:48:48;20.80;99.90
20349;DHT22;10332;50.208;18.988;2022-08-23T05:51:23;21.00;99.90
20349;DHT22;10332;50.208;18.988;2022-08-23T05:53:56;21.30;99.90
20349;DHT22;10332;50.208;18.988;2022-08-23T05:56:40;21.40;99.90
20349;DHT22;10332;50.208;18.988;2022-08-23T05:59:13;21.60;99.90
20349;DHT22;10332;50.208;18.988;2022-08-23T06:01:42;21.80;99.90
20349;DHT22;10332;50.208;18.988;2022-08-23T06:04:11;22.00;99.90
20349;DHT22;10332;50.208;18.988;2022-08-23T06:06:40;22.10;99.90
20349;DHT22;10332;50.208;18.988;2022-08-23T06:09:15;22.20;99.90
20349;DHT22;10332;50.208;18.988;2022-08-23T06:11:45;22.40;99.90
20349;DHT22;10332;50.208;18.988;2022-08-23T06:14:14;22.80;99.90
20349;DHT22;10332;50.208;18.988;2022-08-23T06:16:44;22.90;99.90
20349;DHT22;10332;50.208;18.988;2022-08-23T06:19:14;22.90;99.90
20349;DHT22;10332;50.208;18.988;2022-08-23T06:21:42;22.90;99.90
20349;DHT22;10332;50.208;18.988;2022-08-23T06:24:10;22.90;99.90
20349;DHT22;10332;50.208;18.988;2022-08-23T06:26:41;22.90;99.90
20349;DHT22;10332;50.208;18.988;2022-08-23T06:29:13;22.80;99.90
20349;DHT22;10332;50.208;18.988;2022-08-23T06:31:46;22.70;99.90
20349;DHT22;10332;50.208;18.988;2022-08-23T06:36:47;22.50;99.90
20349;DHT22;10332;50.208;18.988;2022-08-23T06:39:20;22.50;99.90
20349;DHT22;10332;50.208;18.988;2022-08-23T06:41:50;22.50;99.90
20349;DHT22;10332;50.208;18.988;2022-08-23T06:44:19;22.50;99.90
20349;DHT22;10332;50.208;18.988;2022-08-23T06:46:46;22.60;99.90
20349;DHT22;10332;50.208;18.988;2022-08-23T06:49:15;22.60;99.90
20349;DHT22;10332;50.208;18.988;2022-08-23T06:51:47;22.70;99.90
20349;DHT22;10332;50.208;18.988;2022-08-23T06:54:20;22.70;99.90
20349;DHT22;10332;50.208;18.988;2022-08-23T06:56:55;22.70;99.90
20349;DHT22;10332;50.208;18.988;2022-08-23T06:59:24;22.60;99.90
20349;DHT22;10332;50.208;18.988;2022-08-23T07:01:54;22.60;99.90
20349;DHT22;10332;50.208;18.988;2022-08-23T07:04:28;22.50;99.90
20349;DHT22;10332;50.208;18.988;2022-08-23T07:06:57;22.50;99.90
20349;DHT22;10332;50.208;18.988;2022-08-23T07:09:26;22.40;99.90
20349;DHT22;10332;50.208;18.988;2022-08-23T07:11:54;22.40;99.90
20349;DHT22;10332;50.208;18.988;2022-08-23T07:14:23;22.30;99.90
20349;DHT22;10332;50.208;18.988;2022-08-23T07:16:56;22.30;99.90
20349;DHT22;10332;50.208;18.988;2022-08-23T07:19:28;22.30;99.90
20349;DHT22;10332;50.208;18.988;2022-08-23T07:21:58;22.20;99.90
20349;DHT22;10332;50.208;18.988;2022-08-23T07:24:27;22.20;99.90
20349;DHT22;10332;50.208;18.988;2022-08-23T07:27:01;22.30;99.90
20349;DHT22;10332;50.208;18.988;2022-08-23T07:29:35;22.30;99.90
20349;DHT22;10332;50.208;18.988;2022-08-23T07:32:04;22.30;99.90
20349;DHT22;10332;50.208;18.988;2022-08-23T07:34:32;22.30;99.90
20349;DHT22;10332;50.208;18.988;2022-08-23T07:36:59;22.30;99.90
20349;DHT22;10332;50.208;18.988;2022-08-23T07:39:27;22.30;99.90
20349;DHT22;10332;50.208;18.988;2022-08-23T07:41:59;22.30;99.90
20349;DHT22;10332;50.208;18.988;2022-08-23T07:44:47;22.30;99.90
20349;DHT22;10332;50.208;18.988;2022-08-23T07:47:17;22.20;99.90
20349;DHT22;10332;50.208;18.988;2022-08-23T07:49:44;22.20;99.90
20349;DHT22;10332;50.208;18.988;2022-08-23T07:52:13;22.20;99.90
20349;DHT22;10332;50.208;18.988;2022-08-23T07:54:40;22.20;99.90
20349;DHT22;10332;50.208;18.988;2022-08-23T07:57:14;22.20;99.90
20349;DHT22;10332;50.208;18.988;2022-08-23T07:59:42;22.20;99.90
20349;DHT22;10332;50.208;18.988;2022-08-23T08:02:09;22.20;99.90
20349;DHT22;10332;50.208;18.988;2022-08-23T08:04:37;22.20;99.90
20349;DHT22;10332;50.208;18.988;2022-08-23T08:07:04;22.20;99.90
20349;DHT22;10332;50.208;18.988;2022-08-23T08:09:46;22.20;99.90
20349;DHT22;10332;50.208;18.988;2022-08-23T08:12:14;22.10;99.90
20349;DHT22;10332;50.208;18.988;2022-08-23T08:14:41;22.10;99.90
20349;DHT22;10332;50.208;18.988;2022-08-23T08:17:09;22.10;99.90
20349;DHT22;10332;50.208;18.988;2022-08-23T08:19:36;22.00;99.90
20349;DHT22;10332;50.208;18.988;2022-08-23T08:22:03;22.00;99.90
20349;DHT22;10332;50.208;18.988;2022-08-23T08:24:31;22.10;99.90
20349;DHT22;10332;50.208;18.988;2022-08-23T08:26:58;22.10;99.90
20349;DHT22;10332;50.208;18.988;2022-08-23T08:29:26;22.10;99.90
20349;DHT22;10332;50.208;18.988;2022-08-23T08:31:53;22.00;99.90
20349;DHT22;10332;50.208;18.988;2022-08-23T08:34:21;21.80;99.90
20349;DHT22;10332;50.208;18.988;2022-08-23T08:36:51;21.80;99.90
20349;DHT22;10332;50.208;18.988;2022-08-23T08:39:28;21.90;99.90
20349;DHT22;10332;50.208;18.988;2022-08-23T08:45:21;22.20;99.90
20349;DHT22;10332;50.208;18.988;2022-08-23T08:48:02;22.30;99.90
20349;DHT22;10332;50.208;18.988;2022-08-23T08:50:43;22.50;99.90
20349;DHT22;10332;50.208;18.988;2022-08-23T08:53:33;22.80;99.90
20349;DHT22;10332;50.208;18.988;2022-08-23T08:56:31;22.90;99.90
20349;DHT22;10332;50.208;18.988;2022-08-23T08:59:07;22.90;99.90
20349;DHT22;10332;50.208;18.988;2022-08-23T09:01:41;23.00;99.90
20349;DHT22;10332;50.208;18.988;2022-08-23T09:04:09;23.40;99.90
20349;DHT22;10332;50.208;18.988;2022-08-23T09:12:45;24.30;99.90
20349;DHT22;10332;50.208;18.988;2022-08-23T09:18:45;24.60;99.90
20349;DHT22;10332;50.208;18.988;2022-08-23T09:21:13;24.50;99.90
20349;DHT22;10332;50.208;18.988;2022-08-23T09:23:44;24.60;99.90
20349;DHT22;10332;50.208;18.988;2022-08-23T09:26:28;24.50;99.90
20349;DHT22;10332;50.208;18.988;2022-08-23T09:29:22;24.70;99.90
20349;DHT22;10332;50.208;18.988;2022-08-23T09:32:04;24.90;99.90
20349;DHT22;10332;50.208;18.988;2022-08-23T09:34:51;25.40;99.90
20349;DHT22;10332;50.208;18.988;2022-08-23T09:37:31;25.50;99.90
20349;DHT22;10332;50.208;18.988;2022-08-23T09:43:09;25.20;99.90
20349;DHT22;10332;50.208;18.988;2022-08-23T09:48:43;24.80;99.90
20349;DHT22;10332;50.208;18.988;2022-08-23T09:54:18;24.70;99.90
20349;DHT22;10332;50.208;18.988;2022-08-23T09:57:03;24.80;99.90
20349;DHT22;10332;50.208;18.988;2022-08-23T09:59:44;24.70;99.90
20349;DHT22;10332;50.208;18.988;2022-08-23T10:05:16;24.70;99.90
20349;DHT22;10332;50.208;18.988;2022-08-23T10:07:55;24.60;99.90
20349;DHT22;10332;50.208;18.988;2022-08-23T10:10:55;24.60;99.90
20349;DHT22;10332;50.208;18.988;2022-08-23T10:13:46;24.60;99.90
20349;DHT22;10332;50.208;18.988;2022-08-23T10:22:25;24.40;99.90
20349;DHT22;10332;50.208;18.988;2022-08-23T10:25:05;24.40;99.90
20349;DHT22;10332;50.208;18.988;2022-08-23T10:28:11;24.40;99.90
20349;DHT22;10332;50.208;18.988;2022-08-23T10:40:31;24.00;99.90
20349;DHT22;10332;50.208;18.988;2022-08-23T10:46:28;24.10;99.90
20349;DHT22;10332;50.208;18.988;2022-08-23T10:49:00;24.10;99.90
20349;DHT22;10332;50.208;18.988;2022-08-23T10:51:36;24.30;99.90
20349;DHT22;10332;50.208;18.988;2022-08-23T10:54:25;24.40;99.90
20349;DHT22;10332;50.208;18.988;2022-08-23T10:57:01;24.50;99.90
20349;DHT22;10332;50.208;18.988;2022-08-23T10:59:33;24.60;99.90
20349;DHT22;10332;50.208;18.988;2022-08-23T11:02:31;24.60;99.90
20349;DHT22;10332;50.208;18.988;2022-08-23T11:05:16;24.60;99.90
20349;DHT22;10332;50.208;18.988;2022-08-23T11:08:01;24.80;99.90
20349;DHT22;10332;50.208;18.988;2022-08-23T11:13:27;25.00;99.90
20349;DHT22;10332;50.208;18.988;2022-08-23T11:18:45;24.80;99.90
20349;DHT22;10332;50.208;18.988;2022-08-23T11:31:36;26.40;98.40
20349;DHT22;10332;50.208;18.988;2022-08-23T11:45:23;30.00;88.70
20349;DHT22;10332;50.208;18.988;2022-08-23T11:51:25;32.30;76.90
20349;DHT22;10332;50.208;18.988;2022-08-23T11:57:52;37.70;16.40
20349;DHT22;10332;50.208;18.988;2022-08-23T12:01:05;37.40;3.70
20349;DHT22;10332;50.208;18.988;2022-08-23T12:08:57;34.20;24.80
20349;DHT22;10332;50.208;18.988;2022-08-23T12:19:47;29.90;76.50
20349;DHT22;10332;50.208;18.988;2022-08-23T12:22:20;29.30;81.80
20349;DHT22;10332;50.208;18.988;2022-08-23T12:25:10;28.70;86.00
20349;DHT22;10332;50.208;18.988;2022-08-23T12:27:48;28.40;87.90
20349;DHT22;10332;50.208;18.988;2022-08-23T12:30:35;28.20;89.80
20349;DHT22;10332;50.208;18.988;2022-08-23T12:33:39;28.10;90.60
20349;DHT22;10332;50.208;18.988;2022-08-23T12:36:20;28.00;90.30
20349;DHT22;10332;50.208;18.988;2022-08-23T12:39:04;27.90;90.00
20349;DHT22;10332;50.208;18.988;2022-08-23T12:41:49;27.70;90.50
20349;DHT22;10332;50.208;18.988;2022-08-23T12:44:26;27.60;91.10
20349;DHT22;10332;50.208;18.988;2022-08-23T12:46:55;27.60;91.50
20349;DHT22;10332;50.208;18.988;2022-08-23T12:49:28;27.70;91.10
20349;DHT22;10332;50.208;18.988;2022-08-23T12:52:04;27.80;91.00
20349;DHT22;10332;50.208;18.988;2022-08-23T12:54:35;28.10;91.00
20349;DHT22;10332;50.208;18.988;2022-08-23T12:57:18;28.80;90.50
20349;DHT22;10332;50.208;18.988;2022-08-23T13:03:01;30.40;83.10
20349;DHT22;10332;50.208;18.988;2022-08-23T13:08:15;32.10;67.90
20349;DHT22;10332;50.208;18.988;2022-08-23T13:11:02;32.50;63.40
20349;DHT22;10332;50.208;18.988;2022-08-23T13:13:37;33.00;57.50
20349;DHT22;10332;50.208;18.988;2022-08-23T13:16:28;33.50;51.40
20349;DHT22;10332;50.208;18.988;2022-08-23T13:19:29;33.70;48.90
20349;DHT22;10332;50.208;18.988;2022-08-23T13:22:09;33.80;39.60
20349;DHT22;10332;50.208;18.988;2022-08-23T13:24:39;33.50;41.70
20349;DHT22;10332;50.208;18.988;2022-08-23T13:27:20;33.30;43.90
20349;DHT22;10332;50.208;18.988;2022-08-23T13:29:57;33.40;46.00
20349;DHT22;10332;50.208;18.988;2022-08-23T13:32:38;33.20;44.60
20349;DHT22;10332;50.208;18.988;2022-08-23T13:38:13;33.10;46.80
20349;DHT22;10332;50.208;18.988;2022-08-23T13:41:07;32.90;42.30
20349;DHT22;10332;50.208;18.988;2022-08-23T13:43:48;33.50;41.90
20349;DHT22;10332;50.208;18.988;2022-08-23T13:46:27;34.60;33.00
20349;DHT22;10332;50.208;18.988;2022-08-23T13:49:09;35.90;21.50
20349;DHT22;10332;50.208;18.988;2022-08-23T13:52:01;37.60;12.20
20349;DHT22;10332;50.208;18.988;2022-08-23T13:54:56;39.30;2.40
20349;DHT22;10332;50.208;18.988;2022-08-23T13:57:24;41.10;1.00
20349;DHT22;10332;50.208;18.988;2022-08-23T13:59:56;40.40;1.00
20349;DHT22;10332;50.208;18.988;2022-08-23T14:02:28;39.20;1.00
20349;DHT22;10332;50.208;18.988;2022-08-23T14:04:55;39.60;1.00
20349;DHT22;10332;50.208;18.988;2022-08-23T14:07:23;40.40;1.00
20349;DHT22;10332;50.208;18.988;2022-08-23T14:09:50;41.70;1.00
20349;DHT22;10332;50.208;18.988;2022-08-23T14:12:24;42.60;1.00
20349;DHT22;10332;50.208;18.988;2022-08-23T14:14:55;43.40;1.00
20349;DHT22;10332;50.208;18.988;2022-08-23T14:17:24;43.80;1.00
20349;DHT22;10332;50.208;18.988;2022-08-23T14:19:52;44.10;1.00
20349;DHT22;10332;50.208;18.988;2022-08-23T14:22:39;44.20;1.00
20349;DHT22;10332;50.208;18.988;2022-08-23T14:25:08;43.70;1.00
20349;DHT22;10332;50.208;18.988;2022-08-23T14:27:42;42.10;1.00
20349;DHT22;10332;50.208;18.988;2022-08-23T14:30:26;40.00;1.00
20349;DHT22;10332;50.208;18.988;2022-08-23T14:32:57;38.30;1.00
20349;DHT22;10332;50.208;18.988;2022-08-23T14:35:26;36.80;1.00
20349;DHT22;10332;50.208;18.988;2022-08-23T14:37:54;35.70;1.00
20349;DHT22;10332;50.208;18.988;2022-08-23T14:40:31;34.90;1.00
20349;DHT22;10332;50.208;18.988;2022-08-23T14:42:59;34.20;1.00
20349;DHT22;10332;50.208;18.988;2022-08-23T14:45:27;33.60;2.70
20349;DHT22;10332;50.208;18.988;2022-08-23T14:47:54;33.10;8.20
20349;DHT22;10332;50.208;18.988;2022-08-23T14:50:22;32.70;15.90
20349;DHT22;10332;50.208;18.988;2022-08-23T14:52:49;32.30;22.50
20349;DHT22;10332;50.208;18.988;2022-08-23T14:55:16;31.90;25.60
20349;DHT22;10332;50.208;18.988;2022-08-23T14:57:50;31.70;28.80
20349;DHT22;10332;50.208;18.988;2022-08-23T15:00:17;31.40;32.00
20349;DHT22;10332;50.208;18.988;2022-08-23T15:02:46;31.20;35.30
20349;DHT22;10332;50.208;18.988;2022-08-23T15:05:15;31.10;39.50
20349;DHT22;10332;50.208;18.988;2022-08-23T15:07:42;30.90;42.10
20349;DHT22;10332;50.208;18.988;2022-08-23T15:10:11;30.80;45.40
20349;DHT22;10332;50.208;18.988;2022-08-23T15:13:00;30.80;47.90
20349;DHT22;10332;50.208;18.988;2022-08-23T15:15:48;30.70;49.70
20349;DHT22;10332;50.208;18.988;2022-08-23T15:18:17;30.50;50.60
20349;DHT22;10332;50.208;18.988;2022-08-23T15:20:46;30.40;53.60
20349;DHT22;10332;50.208;18.988;2022-08-23T15:23:17;30.30;55.00
20349;DHT22;10332;50.208;18.988;2022-08-23T15:25:44;30.30;57.20
20349;DHT22;10332;50.208;18.988;2022-08-23T15:28:15;30.30;59.40
20349;DHT22;10332;50.208;18.988;2022-08-23T15:30:45;30.20;59.10
20349;DHT22;10332;50.208;18.988;2022-08-23T15:33:15;30.10;59.10
20349;DHT22;10332;50.208;18.988;2022-08-23T15:35:48;29.90;60.40
20349;DHT22;10332;50.208;18.988;2022-08-23T15:38:22;29.70;63.60
20349;DHT22;10332;50.208;18.988;2022-08-23T15:40:52;29.50;67.70
20349;DHT22;10332;50.208;18.988;2022-08-23T15:43:22;29.40;70.70
20349;DHT22;10332;50.208;18.988;2022-08-23T15:46:03;29.40;73.70
20349;DHT22;10332;50.208;18.988;2022-08-23T15:48:57;29.30;73.80
20349;DHT22;10332;50.208;18.988;2022-08-23T15:51:28;29.20;75.00
20349;DHT22;10332;50.208;18.988;2022-08-23T15:53:57;28.90;75.60
20349;DHT22;10332;50.208;18.988;2022-08-23T15:56:49;28.70;77.10
20349;DHT22;10332;50.208;18.988;2022-08-23T15:59:18;28.40;79.10
20349;DHT22;10332;50.208;18.988;2022-08-23T16:01:47;28.20;82.00
20349;DHT22;10332;50.208;18.988;2022-08-23T16:04:14;27.90;84.30
20349;DHT22;10332;50.208;18.988;2022-08-23T16:06:42;27.70;87.30
20349;DHT22;10332;50.208;18.988;2022-08-23T16:09:18;27.60;89.60
20349;DHT22;10332;50.208;18.988;2022-08-23T16:11:47;27.40;90.30
20349;DHT22;10332;50.208;18.988;2022-08-23T16:14:15;27.20;90.80
20349;DHT22;10332;50.208;18.988;2022-08-23T16:16:43;27.10;91.10
20349;DHT22;10332;50.208;18.988;2022-08-23T16:19:14;26.80;91.50
20349;DHT22;10332;50.208;18.988;2022-08-23T16:21:43;26.70;92.40
20349;DHT22;10332;50.208;18.988;2022-08-23T16:24:11;26.40;93.00
20349;DHT22;10332;50.208;18.988;2022-08-23T16:26:42;26.30;94.10
20349;DHT22;10332;50.208;18.988;2022-08-23T16:29:13;26.00;95.00
20349;DHT22;10332;50.208;18.988;2022-08-23T16:31:43;25.90;95.80
20349;DHT22;10332;50.208;18.988;2022-08-23T16:34:15;25.70;96.60
20349;DHT22;10332;50.208;18.988;2022-08-23T16:36:50;25.60;96.90
20349;DHT22;10332;50.208;18.988;2022-08-23T16:39:21;25.50;97.80
20349;DHT22;10332;50.208;18.988;2022-08-23T16:41:49;25.30;98.20
20349;DHT22;10332;50.208;18.988;2022-08-23T16:44:16;25.20;99.00
20349;DHT22;10332;50.208;18.988;2022-08-23T16:46:44;25.10;99.40
20349;DHT22;10332;50.208;18.988;2022-08-23T16:49:14;25.00;99.90
20349;DHT22;10332;50.208;18.988;2022-08-23T16:51:42;24.90;99.90
20349;DHT22;10332;50.208;18.988;2022-08-23T16:54:11;24.70;99.90
20349;DHT22;10332;50.208;18.988;2022-08-23T16:56:39;24.60;99.90
20349;DHT22;10332;50.208;18.988;2022-08-23T16:59:09;24.50;99.90
20349;DHT22;10332;50.208;18.988;2022-08-23T17:04:20;24.20;99.90
20349;DHT22;10332;50.208;18.988;2022-08-23T17:06:56;24.00;99.90
20349;DHT22;10332;50.208;18.988;2022-08-23T17:09:26;23.90;99.90
20349;DHT22;10332;50.208;18.988;2022-08-23T17:11:55;23.80;99.90
20349;DHT22;10332;50.208;18.988;2022-08-23T17:14:25;23.70;99.90
20349;DHT22;10332;50.208;18.988;2022-08-23T17:16:52;23.60;99.90
20349;DHT22;10332;50.208;18.988;2022-08-23T17:19:21;23.50;99.90
20349;DHT22;10332;50.208;18.988;2022-08-23T17:21:48;23.40;99.90
20349;DHT22;10332;50.208;18.988;2022-08-23T17:24:16;23.30;99.90
20349;DHT22;10332;50.208;18.988;2022-08-23T17:26:43;23.20;99.90
20349;DHT22;10332;50.208;18.988;2022-08-23T17:29:11;23.20;99.90
20349;DHT22;10332;50.208;18.988;2022-08-23T17:31:38;23.10;99.90
20349;DHT22;10332;50.208;18.988;2022-08-23T17:34:06;22.90;99.90
20349;DHT22;10332;50.208;18.988;2022-08-23T17:36:38;22.90;99.90
20349;DHT22;10332;50.208;18.988;2022-08-23T17:39:16;22.80;99.90
20349;DHT22;10332;50.208;18.988;2022-08-23T17:41:46;22.70;99.90
20349;DHT22;10332;50.208;18.988;2022-08-23T17:44:14;22.70;99.90
20349;DHT22;10332;50.208;18.988;2022-08-23T17:46:43;22.60;99.90